createdAt,value
2018-08-16T00:00:30.245Z,6.60
2018-08-16T00:02:58.910Z,6.53
2018-08-16T00:05:27.658Z,6.50
2018-08-16T00:07:56.489Z,6.50
2018-08-16T00:10:25.233Z,6.33
2018-08-16T00:12:53.971Z,6.60
2018-08-16T00:15:23.209Z,6.03
2018-08-16T00:17:51.950Z,6.57
2018-08-16T00:20:20.653Z,6.57
2018-08-16T00:22:49.425Z,6.43
2018-08-16T00:25:18.120Z,7.23
2018-08-16T00:27:46.754Z,6.17
2018-08-16T00:30:18.149Z,7.00
2018-08-16T00:32:47.169Z,7.03
2018-08-16T00:35:15.826Z,6.20
2018-08-16T00:37:44.590Z,6.70
2018-08-16T00:40:14.735Z,6.83
2018-08-16T00:42:43.421Z,7.10
2018-08-16T00:45:12.485Z,6.20
2018-08-16T00:47:41.196Z,7.40
2018-08-16T00:50:11.372Z,7.53
2018-08-16T00:52:40.008Z,7.10
2018-08-16T00:55:09.864Z,6.70
2018-08-16T00:57:38.998Z,6.87
2018-08-16T01:00:09.536Z,6.73
2018-08-16T01:02:38.218Z,7.57
2018-08-16T01:05:06.870Z,6.57
2018-08-16T01:07:35.537Z,6.53
2018-08-16T01:10:04.713Z,6.50
2018-08-16T01:12:33.358Z,6.87
2018-08-16T01:15:02.738Z,7.10
2018-08-16T01:17:31.712Z,7.80
2018-08-16T01:20:00.357Z,7.47
2018-08-16T01:22:29.009Z,7.60
2018-08-16T01:24:57.684Z,6.80
2018-08-16T01:27:26.325Z,7.07
2018-08-16T01:29:54.996Z,7.80
2018-08-16T01:32:23.664Z,7.57
2018-08-16T01:34:52.293Z,7.90
2018-08-16T01:37:20.892Z,7.60
2018-08-16T01:39:49.572Z,7.07
2018-08-16T01:42:18.196Z,7.70
2018-08-16T01:44:47.028Z,8.67
2018-08-16T01:47:15.725Z,7.07
2018-08-16T01:49:44.350Z,6.87
2018-08-16T01:52:13.157Z,7.43
2018-08-16T01:54:41.769Z,7.90
2018-08-16T01:57:10.394Z,8.37
2018-08-16T01:59:39.148Z,8.37
2018-08-16T02:02:07.850Z,9.20
2018-08-16T02:04:36.478Z,8.87
2018-08-16T02:07:05.253Z,7.47
2018-08-16T02:09:33.925Z,7.60
2018-08-16T02:12:02.546Z,7.70
2018-08-16T02:14:31.233Z,7.77
2018-08-16T02:16:59.958Z,8.20
2018-08-16T02:19:28.571Z,8.37
2018-08-16T02:21:57.220Z,8.37
2018-08-16T02:24:25.899Z,8.97
2018-08-16T02:26:54.521Z,8.97
2018-08-16T02:29:23.172Z,8.10
2018-08-16T02:31:51.788Z,8.23
2018-08-16T02:34:20.388Z,8.53
2018-08-16T02:36:49.058Z,8.70
2018-08-16T02:39:17.666Z,8.90
2018-08-16T02:41:46.302Z,8.30
2018-08-16T02:44:14.950Z,8.87
2018-08-16T02:46:43.585Z,8.33
2018-08-16T02:49:12.180Z,8.20
2018-08-16T02:51:40.925Z,8.83
2018-08-16T02:54:09.522Z,8.83
2018-08-16T02:56:38.216Z,7.67
2018-08-16T02:59:07.591Z,8.17
2018-08-16T03:01:36.209Z,7.70
2018-08-16T03:04:04.855Z,8.10
2018-08-16T03:06:33.550Z,8.30
2018-08-16T03:09:02.158Z,8.57
2018-08-16T03:11:30.766Z,8.50
2018-08-16T03:13:59.572Z,8.53
2018-08-16T03:16:28.241Z,8.87
2018-08-16T03:18:56.846Z,8.60
2018-08-16T03:21:25.643Z,8.23
2018-08-16T03:23:54.250Z,8.50
2018-08-16T03:26:22.859Z,8.03
2018-08-16T03:28:51.587Z,7.93
2018-08-16T03:31:20.194Z,8.30
2018-08-16T03:33:48.845Z,9.33
2018-08-16T03:36:17.721Z,9.20
2018-08-16T03:38:46.325Z,9.17
2018-08-16T03:41:14.927Z,8.77
2018-08-16T03:43:43.576Z,8.97
2018-08-16T03:46:12.243Z,9.07
2018-08-16T03:48:40.876Z,9.20
2018-08-16T03:51:09.658Z,8.73
2018-08-16T03:53:38.296Z,8.53
2018-08-16T03:56:07.025Z,8.87
2018-08-16T03:58:35.953Z,9.47
2018-08-16T04:01:04.651Z,8.57
2018-08-16T04:03:33.301Z,9.50
2018-08-16T04:06:02.394Z,9.30
2018-08-16T04:08:31.061Z,8.33
2018-08-16T04:10:59.696Z,9.30
2018-08-16T04:13:28.339Z,9.13
2018-08-16T04:15:56.969Z,8.90
2018-08-16T04:18:25.636Z,10.10
2018-08-16T04:20:54.237Z,9.50
2018-08-16T04:23:22.914Z,10.00
2018-08-16T04:25:51.530Z,8.83
2018-08-16T04:28:20.159Z,8.27
2018-08-16T04:30:48.780Z,9.40
2018-08-16T04:33:17.461Z,9.13
2018-08-16T04:35:46.102Z,9.50
2018-08-16T04:38:14.907Z,8.97
2018-08-16T04:40:43.531Z,9.23
2018-08-16T04:43:12.243Z,8.30
2018-08-16T04:45:40.894Z,8.73
2018-08-16T04:48:09.498Z,9.20
2018-08-16T04:50:38.212Z,9.00
2018-08-16T04:53:07.517Z,9.93
2018-08-16T04:55:36.153Z,9.57
2018-08-16T04:58:05.157Z,9.23
2018-08-16T05:00:33.793Z,9.33
2018-08-16T05:03:02.523Z,8.87
2018-08-16T05:05:31.166Z,9.50
2018-08-16T05:07:59.961Z,9.60
2018-08-16T05:10:28.593Z,9.53
2018-08-16T05:12:57.303Z,9.80
2018-08-16T05:15:26.155Z,9.67
2018-08-16T05:17:54.801Z,9.27
2018-08-16T05:20:23.444Z,10.53
2018-08-16T05:22:52.255Z,9.80
2018-08-16T05:25:20.902Z,10.20
2018-08-16T05:27:49.558Z,9.63
2018-08-16T05:30:18.213Z,10.57
2018-08-16T05:32:46.913Z,9.93
2018-08-16T05:35:15.537Z,9.27
2018-08-16T05:37:44.202Z,9.80
2018-08-16T05:40:12.868Z,9.97
2018-08-16T05:42:41.514Z,9.80
2018-08-16T05:45:10.249Z,9.97
2018-08-16T05:47:38.989Z,10.10
2018-08-16T05:50:09.979Z,10.23
2018-08-16T05:52:38.737Z,9.60
2018-08-16T05:55:07.866Z,9.77
2018-08-16T05:57:36.822Z,9.63
2018-08-16T06:00:08.156Z,9.83
2018-08-16T06:02:36.849Z,10.43
2018-08-16T06:05:06.651Z,9.60
2018-08-16T06:07:35.427Z,9.93
2018-08-16T06:10:04.211Z,10.00
2018-08-16T06:12:32.842Z,8.97
2018-08-16T06:15:01.495Z,9.37
2018-08-16T06:17:30.213Z,10.10
2018-08-16T06:19:58.864Z,9.50
2018-08-16T06:22:27.507Z,9.53
2018-08-16T06:24:56.213Z,9.37
2018-08-16T06:27:24.865Z,9.23
2018-08-16T06:29:53.537Z,10.30
2018-08-16T06:32:22.226Z,9.67
2018-08-16T06:34:50.927Z,9.20
2018-08-16T06:37:19.542Z,10.37
2018-08-16T06:39:48.225Z,11.60
2018-08-16T06:42:16.886Z,10.70
2018-08-16T06:44:45.562Z,10.20
2018-08-16T06:47:17.034Z,10.53
2018-08-16T06:49:46.733Z,10.50
2018-08-16T06:52:15.521Z,10.37
2018-08-16T06:54:44.169Z,9.17
2018-08-16T06:57:12.856Z,9.47
2018-08-16T06:59:41.709Z,10.27
2018-08-16T07:02:10.341Z,9.93
2018-08-16T07:04:38.990Z,9.30
2018-08-16T07:07:08.145Z,9.33
2018-08-16T07:09:36.761Z,8.40
2018-08-16T07:12:05.440Z,8.77
2018-08-16T07:14:34.166Z,8.50
2018-08-16T07:17:03.043Z,8.60
2018-08-16T07:19:31.734Z,8.17
2018-08-16T07:22:00.391Z,8.40
2018-08-16T07:24:29.116Z,7.90
2018-08-16T07:26:57.709Z,7.53
2018-08-16T07:29:26.366Z,8.00
2018-08-16T07:31:55.005Z,8.50
2018-08-16T07:34:23.696Z,6.87
2018-08-16T07:36:52.935Z,7.50
2018-08-16T07:39:21.626Z,7.20
2018-08-16T07:41:50.318Z,7.03
2018-08-16T07:44:18.997Z,7.27
2018-08-16T07:46:47.625Z,7.30
2018-08-16T07:49:16.501Z,6.67
2018-08-16T07:51:45.491Z,6.97
2018-08-16T07:54:13.993Z,6.23
2018-08-16T07:56:42.646Z,6.60
2018-08-16T07:59:11.461Z,6.27
2018-08-16T08:01:40.202Z,5.87
2018-08-16T08:04:08.892Z,6.27
2018-08-16T08:06:37.569Z,5.63
2018-08-16T08:09:07.821Z,5.87
2018-08-16T08:11:36.705Z,5.73
2018-08-16T08:14:05.676Z,5.93
2018-08-16T08:16:34.338Z,5.70
2018-08-16T08:19:03.001Z,5.30
2018-08-16T08:21:31.651Z,5.50
2018-08-16T08:24:00.367Z,5.33
2018-08-16T08:26:29.009Z,5.27
2018-08-16T08:28:57.738Z,4.80
2018-08-16T08:31:26.707Z,5.00
2018-08-16T08:33:55.342Z,5.40
2018-08-16T08:36:35.018Z,4.77
2018-08-16T08:39:03.805Z,4.53
2018-08-16T08:41:32.458Z,5.10
2018-08-16T08:44:14.151Z,5.30
2018-08-16T08:46:42.854Z,4.80
2018-08-16T08:49:11.490Z,5.10
2018-08-16T08:51:40.160Z,4.70
2018-08-16T08:54:33.937Z,4.37
2018-08-16T08:57:13.770Z,5.10
2018-08-16T08:59:42.516Z,5.03
2018-08-16T09:02:11.810Z,4.53
2018-08-16T09:04:40.516Z,4.30
2018-08-16T09:07:10.582Z,4.40
2018-08-16T09:09:45.035Z,4.70
2018-08-16T09:14:28.717Z,4.70
2018-08-16T09:16:57.380Z,3.57
2018-08-16T09:19:26.025Z,4.30
2018-08-16T09:21:54.690Z,4.00
2018-08-16T09:24:23.318Z,3.73
2018-08-16T09:26:51.977Z,4.20
2018-08-16T09:37:29.294Z,3.30
2018-08-16T09:39:58.407Z,3.00
2018-08-16T09:42:27.113Z,2.90
2018-08-16T09:45:07.127Z,3.00
2018-08-16T09:47:47.096Z,3.00
2018-08-16T09:50:15.800Z,2.80
2018-08-16T09:52:44.465Z,2.40
2018-08-16T09:55:13.084Z,2.73
2018-08-16T09:57:41.837Z,2.70
2018-08-16T10:00:10.490Z,2.50
2018-08-16T10:02:39.342Z,2.90
2018-08-16T10:05:08.039Z,3.10
2018-08-16T10:07:36.697Z,3.20
2018-08-16T10:10:05.421Z,3.03
2018-08-16T10:12:34.289Z,3.23
2018-08-16T10:15:03.526Z,3.17
2018-08-16T10:17:32.150Z,3.23
2018-08-16T10:20:00.822Z,3.33
2018-08-16T10:22:29.456Z,3.27
2018-08-16T10:24:58.124Z,3.00
2018-08-16T10:27:27.056Z,2.90
2018-08-16T10:29:55.677Z,2.90
2018-08-16T10:32:24.288Z,2.80
2018-08-16T10:34:52.986Z,2.90
2018-08-16T10:37:21.637Z,2.87
2018-08-16T10:39:50.238Z,2.77
2018-08-16T10:42:19.081Z,3.20
2018-08-16T10:44:47.730Z,2.97
2018-08-16T10:47:16.421Z,2.73
2018-08-16T10:49:45.138Z,2.80
2018-08-16T10:52:13.781Z,2.60
2018-08-16T10:54:42.414Z,2.57
2018-08-16T10:57:11.093Z,2.43
2018-08-16T10:59:39.781Z,2.77
2018-08-16T11:02:08.545Z,2.57
2018-08-16T11:04:37.242Z,2.60
2018-08-16T11:07:06.125Z,2.57
2018-08-16T11:09:34.767Z,3.00
2018-08-16T11:12:03.544Z,2.57
2018-08-16T11:14:32.210Z,2.60
2018-08-16T11:17:00.833Z,2.73
2018-08-16T11:19:29.525Z,2.67
2018-08-16T11:21:58.194Z,2.40
2018-08-16T11:24:26.814Z,2.53
2018-08-16T11:26:55.492Z,2.70
2018-08-16T11:29:24.235Z,2.43
2018-08-16T11:31:52.894Z,3.03
2018-08-16T11:34:21.607Z,3.00
2018-08-16T11:36:50.278Z,2.57
2018-08-16T11:39:18.940Z,2.93
2018-08-16T11:41:47.609Z,3.10
2018-08-16T11:44:16.293Z,2.70
2018-08-16T11:46:44.981Z,2.80
2018-08-16T11:49:13.671Z,2.70
2018-08-16T11:51:42.323Z,2.80
2018-08-16T11:54:10.970Z,2.63
2018-08-16T11:56:39.606Z,2.57
2018-08-16T11:59:09.306Z,2.80
2018-08-16T12:01:38.002Z,2.80
2018-08-16T12:04:06.693Z,2.57
2018-08-16T12:06:35.326Z,2.50
2018-08-16T12:09:05.970Z,2.70
2018-08-16T12:11:34.638Z,2.80
2018-08-16T12:14:03.306Z,3.10
2018-08-16T12:16:31.962Z,2.67
2018-08-16T12:19:00.620Z,2.40
2018-08-16T12:21:29.251Z,2.67
2018-08-16T12:23:58.034Z,2.67
2018-08-16T12:26:26.702Z,2.00
2018-08-16T12:28:55.359Z,2.40
2018-08-16T12:31:24.069Z,2.20
2018-08-16T12:33:53.024Z,2.20
2018-08-16T12:36:21.851Z,2.50
2018-08-16T12:38:50.517Z,2.17
2018-08-16T12:41:19.186Z,2.33
2018-08-16T12:43:47.893Z,2.30
2018-08-16T12:46:16.595Z,2.17
2018-08-16T12:48:45.233Z,2.00
2018-08-16T12:51:13.923Z,2.00
2018-08-16T12:53:42.724Z,2.70
2018-08-16T12:56:11.342Z,2.13
2018-08-16T12:58:40.022Z,2.33
2018-08-16T13:01:08.733Z,2.37
2018-08-16T13:03:37.408Z,2.20
2018-08-16T13:06:06.121Z,2.20
2018-08-16T13:08:35.060Z,2.40
2018-08-16T13:11:03.928Z,1.73
2018-08-16T13:13:32.584Z,2.27
2018-08-16T13:16:01.530Z,1.97
2018-08-16T13:18:30.185Z,2.07
2018-08-16T13:20:58.954Z,2.37
2018-08-16T13:23:27.646Z,2.17
2018-08-16T13:25:56.310Z,2.40
2018-08-16T13:28:25.006Z,1.77
2018-08-16T13:30:53.685Z,2.40
2018-08-16T13:33:22.374Z,2.30
2018-08-16T13:35:51.041Z,2.20
2018-08-16T13:38:19.803Z,2.00
2018-08-16T13:40:48.526Z,1.87
2018-08-16T13:43:17.202Z,2.30
2018-08-16T13:45:45.906Z,2.33
2018-08-16T13:48:14.619Z,2.10
2018-08-16T13:50:43.209Z,1.87
2018-08-16T13:53:11.985Z,2.10
2018-08-16T13:55:40.635Z,2.60
2018-08-16T13:58:09.337Z,2.30
2018-08-16T14:00:37.972Z,2.30
2018-08-16T14:03:06.733Z,2.20
2018-08-16T14:05:35.353Z,2.30
2018-08-16T14:08:04.009Z,2.10
2018-08-16T14:10:32.766Z,2.17
2018-08-16T14:13:01.925Z,2.03
2018-08-16T14:15:30.595Z,2.17
2018-08-16T14:17:59.257Z,2.00
2018-08-16T14:20:27.929Z,2.07
2018-08-16T14:22:56.768Z,2.10
2018-08-16T14:25:25.386Z,2.30
2018-08-16T14:27:54.045Z,2.20
2018-08-16T14:30:22.699Z,2.17
2018-08-16T14:32:51.317Z,2.30
2018-08-16T14:35:20.036Z,2.10
2018-08-16T14:37:48.670Z,2.10
2018-08-16T14:40:17.321Z,2.63
2018-08-16T14:42:45.991Z,2.00
2018-08-16T14:45:14.720Z,2.07
2018-08-16T14:47:43.358Z,2.20
2018-08-16T14:50:12.030Z,2.20
2018-08-16T14:52:40.694Z,2.23
2018-08-16T14:55:09.367Z,2.30
2018-08-16T14:57:38.084Z,2.30
2018-08-16T15:00:08.074Z,1.83
2018-08-16T15:02:36.754Z,1.97
2018-08-16T15:05:06.023Z,1.80
2018-08-16T15:07:34.685Z,1.77
2018-08-16T15:10:04.652Z,2.33
2018-08-16T15:12:33.527Z,1.80
2018-08-16T15:15:02.151Z,1.83
2018-08-16T15:17:30.826Z,1.80
2018-08-16T15:19:59.498Z,1.80
2018-08-16T15:22:28.131Z,2.63
2018-08-16T15:24:56.878Z,2.10
2018-08-16T15:27:25.506Z,2.80
2018-08-16T15:29:54.118Z,2.30
2018-08-16T15:32:22.823Z,1.90
2018-08-16T15:34:51.413Z,2.10
2018-08-16T15:37:20.153Z,2.17
2018-08-16T15:39:49.227Z,2.20
2018-08-16T15:42:17.854Z,1.90
2018-08-16T15:44:46.559Z,2.10
2018-08-16T15:47:15.184Z,2.20
2018-08-16T15:49:44.021Z,1.63
2018-08-16T15:52:12.663Z,1.97
2018-08-16T15:54:41.286Z,1.73
2018-08-16T15:57:09.925Z,2.00
2018-08-16T15:59:38.554Z,1.90
2018-08-16T16:02:07.309Z,1.80
2018-08-16T16:04:35.962Z,2.50
2018-08-16T16:07:04.749Z,1.87
2018-08-16T16:09:33.409Z,1.70
2018-08-16T16:12:02.033Z,1.90
2018-08-16T16:14:30.834Z,1.70
2018-08-16T16:16:59.462Z,2.03
2018-08-16T16:19:28.138Z,1.93
2018-08-16T16:21:56.775Z,1.93
2018-08-16T16:24:25.391Z,1.90
2018-08-16T16:26:54.140Z,2.10
2018-08-16T16:29:22.749Z,1.87
2018-08-16T16:31:51.418Z,1.73
2018-08-16T16:34:20.109Z,1.93
2018-08-16T16:36:48.763Z,1.63
2018-08-16T16:39:17.425Z,1.97
2018-08-16T16:41:46.122Z,2.23
2018-08-16T16:44:14.754Z,1.97
2018-08-16T16:46:43.426Z,2.70
2018-08-16T16:49:12.132Z,2.13
2018-08-16T16:51:40.839Z,2.00
2018-08-16T16:54:09.448Z,1.73
2018-08-16T16:56:38.105Z,1.80
2018-08-16T16:59:07.673Z,2.20
2018-08-16T17:01:36.314Z,2.03
2018-08-16T17:04:05.072Z,1.97
2018-08-16T17:06:33.639Z,2.30
2018-08-16T17:09:02.308Z,1.80
2018-08-16T17:11:30.925Z,2.00
2018-08-16T17:13:59.572Z,2.30
2018-08-16T17:16:28.245Z,2.40
2018-08-16T17:18:56.897Z,2.27
2018-08-16T17:21:25.539Z,2.00
2018-08-16T17:23:54.227Z,2.50
2018-08-16T17:26:22.940Z,2.30
2018-08-16T17:28:51.570Z,2.20
2018-08-16T17:31:20.177Z,2.93
2018-08-16T17:33:49.599Z,2.17
2018-08-16T17:36:18.518Z,2.20
2018-08-16T17:38:47.373Z,2.10
2018-08-16T17:41:16.239Z,2.43
2018-08-16T17:43:45.068Z,2.63
2018-08-16T17:46:13.693Z,2.67
2018-08-16T17:48:42.427Z,2.57
2018-08-16T17:51:11.074Z,2.73
2018-08-16T17:53:39.930Z,2.53
2018-08-16T17:56:08.886Z,2.27
2018-08-16T17:58:37.523Z,2.40
2018-08-16T18:01:06.245Z,2.73
2018-08-16T18:03:35.762Z,2.53
2018-08-16T18:06:04.698Z,3.03
2018-08-16T18:08:40.168Z,2.63
2018-08-16T18:11:09.242Z,2.70
2018-08-16T18:13:38.170Z,2.80
2018-08-16T18:16:06.833Z,3.53
2018-08-16T18:18:35.745Z,3.93
2018-08-16T18:21:04.380Z,3.10
2018-08-16T18:23:33.067Z,3.10
2018-08-16T18:26:01.694Z,3.17
2018-08-16T18:28:30.365Z,2.77
2018-08-16T18:31:02.105Z,3.07
2018-08-16T18:33:31.589Z,3.57
2018-08-16T18:36:00.565Z,3.50
2018-08-16T18:38:29.202Z,3.03
2018-08-16T18:40:57.833Z,2.70
2018-08-16T18:43:27.330Z,3.70
2018-08-16T18:45:55.979Z,2.87
2018-08-16T18:48:40.918Z,2.80
2018-08-16T18:51:09.537Z,3.63
2018-08-16T18:53:38.226Z,3.10
2018-08-16T18:56:06.857Z,3.30
2018-08-16T18:58:35.470Z,2.50
2018-08-16T19:01:11.081Z,2.87
2018-08-16T19:03:39.736Z,2.70
2018-08-16T19:06:08.362Z,3.10
2018-08-16T19:08:37.038Z,2.93
2018-08-16T19:11:07.244Z,3.17
2018-08-16T19:13:36.070Z,2.80
2018-08-16T19:16:04.715Z,3.63
2018-08-16T19:18:33.396Z,2.67
2018-08-16T19:21:03.304Z,3.27
2018-08-16T19:23:31.966Z,3.23
2018-08-16T19:26:00.756Z,3.37
2018-08-16T19:28:30.095Z,3.20
2018-08-16T19:30:58.881Z,3.30
2018-08-16T19:33:27.530Z,3.10
2018-08-16T19:35:56.163Z,3.10
2018-08-16T19:38:24.836Z,2.67
2018-08-16T19:40:53.446Z,3.23
2018-08-16T19:43:22.074Z,3.30
2018-08-16T19:45:50.739Z,3.40
2018-08-16T19:48:19.983Z,3.50
2018-08-16T19:50:48.684Z,3.20
2018-08-16T19:53:17.301Z,4.03
2018-08-16T19:55:45.917Z,4.47
2018-08-16T19:58:14.588Z,3.83
2018-08-16T20:00:43.217Z,3.80
2018-08-16T20:03:11.858Z,3.33
2018-08-16T20:05:40.471Z,3.23
2018-08-16T20:08:09.329Z,3.60
2018-08-16T20:10:37.953Z,3.23
2018-08-16T20:13:06.675Z,3.40
2018-08-16T20:15:35.356Z,3.97
2018-08-16T20:18:04.220Z,5.70
2018-08-16T20:20:34.856Z,5.30
2018-08-16T20:23:03.725Z,6.00
2018-08-16T20:25:32.472Z,5.47
2018-08-16T20:28:02.405Z,4.40
2018-08-16T20:30:31.049Z,4.70
2018-08-16T20:32:59.749Z,4.67
2018-08-16T20:35:28.375Z,4.07
2018-08-16T20:37:57.000Z,3.80
2018-08-16T20:40:25.682Z,4.03
2018-08-16T20:42:54.306Z,3.60
2018-08-16T20:45:22.978Z,3.77
2018-08-16T20:47:51.594Z,3.70
2018-08-16T20:50:20.229Z,4.50
2018-08-16T20:52:48.875Z,3.77
2018-08-16T20:55:17.478Z,3.73
2018-08-16T20:57:46.149Z,3.37
2018-08-16T21:00:15.834Z,3.87
2018-08-16T21:02:44.505Z,3.70
2018-08-16T21:05:13.189Z,4.03
2018-08-16T21:07:41.906Z,3.83
2018-08-16T21:10:11.207Z,3.50
2018-08-16T21:12:39.929Z,3.50
2018-08-16T21:15:08.828Z,3.60
2018-08-16T21:17:37.502Z,3.17
2018-08-16T21:20:06.261Z,4.40
2018-08-16T21:22:34.902Z,3.70
2018-08-16T21:25:03.602Z,4.13
2018-08-16T21:51:01.665Z,4.33
2018-08-16T21:53:30.272Z,4.47
2018-08-16T21:55:58.993Z,4.20
2018-08-16T21:58:27.610Z,4.60
2018-08-16T22:00:58.550Z,4.30
2018-08-16T22:03:28.297Z,4.77
2018-08-16T22:06:04.565Z,5.30
2018-08-16T22:08:39.437Z,4.70
2018-08-16T22:11:08.441Z,4.70
2018-08-16T22:13:37.229Z,4.63
2018-08-16T22:16:06.107Z,4.57
2018-08-16T22:18:34.794Z,4.90
2018-08-16T22:21:04.074Z,4.40
2018-08-16T22:23:32.738Z,4.50
2018-08-16T22:26:01.498Z,4.47
2018-08-16T22:28:30.105Z,4.90
2018-08-16T22:30:59.211Z,4.67
2018-08-16T22:33:27.862Z,4.10
2018-08-16T22:35:56.635Z,4.67
2018-08-16T22:38:25.373Z,4.27
2018-08-16T22:40:54.018Z,4.30
2018-08-16T22:43:22.670Z,6.20
2018-08-16T22:45:51.293Z,4.20
2018-08-16T22:48:19.931Z,4.53
2018-08-16T22:50:48.575Z,4.80
2018-08-16T22:53:17.185Z,5.30
2018-08-16T22:55:45.825Z,4.70
2018-08-16T22:58:14.494Z,4.97
2018-08-16T23:00:43.177Z,4.80
2018-08-16T23:03:11.845Z,5.40
2018-08-16T23:05:40.488Z,5.43
2018-08-16T23:08:09.305Z,4.63
2018-08-16T23:10:37.949Z,5.23
2018-08-16T23:13:06.688Z,5.03
2018-08-16T23:15:35.341Z,4.53
2018-08-16T23:18:04.040Z,5.30
2018-08-16T23:20:32.647Z,5.10
2018-08-16T23:23:01.285Z,4.97
2018-08-16T23:25:30.151Z,5.13
2018-08-16T23:27:58.837Z,4.90
2018-08-16T23:30:27.457Z,4.40
2018-08-16T23:32:56.095Z,4.50
2018-08-16T23:35:24.800Z,3.93
2018-08-16T23:37:53.468Z,4.43
2018-08-16T23:40:22.165Z,4.93
2018-08-16T23:42:50.983Z,4.80
2018-08-16T23:45:19.661Z,5.20
2018-08-16T23:47:59.393Z,4.20
2018-08-16T23:50:28.073Z,4.50
2018-08-16T23:52:56.712Z,5.33
2018-08-16T23:55:25.354Z,4.60
2018-08-16T23:58:00.763Z,4.87
